sensor_id;sensor_type;location;lat;lon;timestamp;pressure;altitude;pressure_sealevel;temperature;humidity
77159;BME280;66129;45.890;13.714;2023-02-12T00:01:21;102613.34;;;-1.40;74.84
77159;BME280;66129;45.890;13.714;2023-02-12T00:03:47;102660.22;;;-1.41;76.75
77159;BME280;66129;45.890;13.714;2023-02-12T00:06:13;102630.78;;;-1.67;76.25
77159;BME280;66129;45.890;13.714;2023-02-12T00:08:39;102663.78;;;-1.30;75.74
77159;BME280;66129;45.890;13.714;2023-02-12T00:11:25;102619.88;;;-1.59;76.38
77159;BME280;66129;45.890;13.714;2023-02-12T00:13:51;102668.19;;;-1.28;75.66
77159;BME280;66129;45.890;13.714;2023-02-12T00:16:20;102665.66;;;-1.19;75.14
77159;BME280;66129;45.890;13.714;2023-02-12T00:18:46;102664.94;;;-1.18;75.09
77159;BME280;66129;45.890;13.714;2023-02-12T00:21:12;102669.97;;;-1.18;74.92
77159;BME280;66129;45.890;13.714;2023-02-12T00:23:39;102593.09;;;-1.67;74.71
77159;BME280;66129;45.890;13.714;2023-02-12T00:26:13;102633.00;;;-1.36;74.96
77159;BME280;66129;45.890;13.714;2023-02-12T00:28:40;102671.31;;;-1.22;75.40
77159;BME280;66129;45.890;13.714;2023-02-12T00:31:10;102615.28;;;-1.63;74.57
77159;BME280;66129;45.890;13.714;2023-02-12T00:33:36;102602.84;;;-1.70;74.88
77159;BME280;66129;45.890;13.714;2023-02-12T00:36:02;102651.50;;;-1.36;75.52
77159;BME280;66129;45.890;13.714;2023-02-12T00:38:28;102659.31;;;-1.33;75.72
77159;BME280;66129;45.890;13.714;2023-02-12T00:40:54;102608.19;;;-1.67;75.33
77159;BME280;66129;45.890;13.714;2023-02-12T00:43:19;102639.22;;;-1.41;74.86
77159;BME280;66129;45.890;13.714;2023-02-12T00:45:45;102631.06;;;-1.47;74.97
77159;BME280;66129;45.890;13.714;2023-02-12T00:48:12;102603.47;;;-1.73;75.44
77159;BME280;66129;45.890;13.714;2023-02-12T00:50:38;102650.16;;;-1.58;75.53
77159;BME280;66129;45.890;13.714;2023-02-12T00:53:06;102612.47;;;-1.83;75.70
77159;BME280;66129;45.890;13.714;2023-02-12T00:55:32;102580.22;;;-2.13;77.33
77159;BME280;66129;45.890;13.714;2023-02-12T00:57:57;102667.19;;;-1.47;76.07
77159;BME280;66129;45.890;13.714;2023-02-12T01:00:23;102571.38;;;-1.92;75.37
77159;BME280;66129;45.890;13.714;2023-02-12T01:02:49;102604.50;;;-1.71;75.95
77159;BME280;66129;45.890;13.714;2023-02-12T01:05:14;102635.06;;;-1.58;75.73
77159;BME280;66129;45.890;13.714;2023-02-12T01:07:40;102601.97;;;-1.62;75.36
77159;BME280;66129;45.890;13.714;2023-02-12T01:10:07;102637.16;;;-1.45;74.89
77159;BME280;66129;45.890;13.714;2023-02-12T01:12:33;102628.31;;;-1.50;75.77
77159;BME280;66129;45.890;13.714;2023-02-12T01:14:58;102574.63;;;-1.85;75.80
77159;BME280;66129;45.890;13.714;2023-02-12T01:17:24;102676.63;;;-1.11;75.12
77159;BME280;66129;45.890;13.714;2023-02-12T01:19:50;102679.41;;;-0.99;74.25
77159;BME280;66129;45.890;13.714;2023-02-12T01:22:15;102618.81;;;-1.27;74.79
77159;BME280;66129;45.890;13.714;2023-02-12T01:24:41;102555.09;;;-1.70;74.81
77159;BME280;66129;45.890;13.714;2023-02-12T01:27:06;102657.06;;;-1.05;74.55
77159;BME280;66129;45.890;13.714;2023-02-12T01:29:32;102643.31;;;-1.16;74.84
77159;BME280;66129;45.890;13.714;2023-02-12T01:31:57;102609.03;;;-1.33;75.08
77159;BME280;66129;45.890;13.714;2023-02-12T01:34:23;102599.31;;;-1.47;74.47
77159;BME280;66129;45.890;13.714;2023-02-12T01:36:49;102583.78;;;-1.51;75.68
77159;BME280;66129;45.890;13.714;2023-02-12T01:39:14;102624.28;;;-1.31;75.46
77159;BME280;66129;45.890;13.714;2023-02-12T01:41:42;102650.88;;;-1.16;75.28
77159;BME280;66129;45.890;13.714;2023-02-12T01:44:23;102592.78;;;-1.36;75.51
77159;BME280;66129;45.890;13.714;2023-02-12T01:47:01;102637.41;;;-1.17;76.02
77159;BME280;66129;45.890;13.714;2023-02-12T01:49:37;102626.34;;;-1.27;76.10
77159;BME280;66129;45.890;13.714;2023-02-12T01:52:09;102630.03;;;-1.32;76.63
77159;BME280;66129;45.890;13.714;2023-02-12T01:54:38;102587.78;;;-1.53;76.05
77159;BME280;66129;45.890;13.714;2023-02-12T01:57:05;102633.88;;;-1.27;76.14
77159;BME280;66129;45.890;13.714;2023-02-12T01:59:32;102592.50;;;-1.56;75.61
77159;BME280;66129;45.890;13.714;2023-02-12T02:01:59;102501.34;;;-1.89;74.93
77159;BME280;66129;45.890;13.714;2023-02-12T02:04:30;102629.13;;;-1.16;74.57
77159;BME280;66129;45.890;13.714;2023-02-12T02:07:02;102620.56;;;-1.26;74.96
77159;BME280;66129;45.890;13.714;2023-02-12T02:09:32;102619.38;;;-1.30;75.25
77159;BME280;66129;45.890;13.714;2023-02-12T02:11:59;102586.75;;;-1.55;75.23
77159;BME280;66129;45.890;13.714;2023-02-12T02:14:44;102585.41;;;-1.77;76.39
77159;BME280;66129;45.890;13.714;2023-02-12T02:20:20;102616.00;;;-1.64;77.01
77159;BME280;66129;45.890;13.714;2023-02-12T02:28:43;102609.06;;;-1.75;78.19
77159;BME280;66129;45.890;13.714;2023-02-12T02:31:29;102567.69;;;-1.96;77.31
77159;BME280;66129;45.890;13.714;2023-02-12T02:41:49;102609.06;;;-1.84;78.48
77159;BME280;66129;45.890;13.714;2023-02-12T02:44:34;102596.81;;;-1.89;78.97
77159;BME280;66129;45.890;13.714;2023-02-12T02:47:02;102598.56;;;-1.80;77.72
77159;BME280;66129;45.890;13.714;2023-02-12T02:49:34;102589.25;;;-1.64;77.04
77159;BME280;66129;45.890;13.714;2023-02-12T02:52:07;102536.66;;;-1.96;77.08
77159;BME280;66129;45.890;13.714;2023-02-12T02:54:42;102538.41;;;-1.95;77.17
77159;BME280;66129;45.890;13.714;2023-02-12T02:57:15;102536.94;;;-1.93;76.98
77159;BME280;66129;45.890;13.714;2023-02-12T02:59:45;102533.38;;;-1.78;76.37
77159;BME280;66129;45.890;13.714;2023-02-12T03:02:22;102519.66;;;-1.99;77.17
77159;BME280;66129;45.890;13.714;2023-02-12T03:05:11;102572.09;;;-1.76;76.80
77159;BME280;66129;45.890;13.714;2023-02-12T03:08:10;102588.66;;;-1.53;76.49
77159;BME280;66129;45.890;13.714;2023-02-12T03:10:41;102605.84;;;-1.66;77.55
77159;BME280;66129;45.890;13.714;2023-02-12T03:13:11;102587.34;;;-1.83;77.69
77159;BME280;66129;45.890;13.714;2023-02-12T03:15:53;102597.97;;;-1.77;77.32
77159;BME280;66129;45.890;13.714;2023-02-12T03:18:46;102573.00;;;-1.84;77.94
77159;BME280;66129;45.890;13.714;2023-02-12T03:21:18;102591.91;;;-1.79;77.54
77159;BME280;66129;45.890;13.714;2023-02-12T03:24:12;102596.63;;;-1.91;78.71
77159;BME280;66129;45.890;13.714;2023-02-12T03:26:44;102553.75;;;-2.18;78.46
77159;BME280;66129;45.890;13.714;2023-02-12T03:29:10;102519.03;;;-2.38;78.52
77159;BME280;66129;45.890;13.714;2023-02-12T03:31:52;102588.78;;;-2.02;78.76
77159;BME280;66129;45.890;13.714;2023-02-12T03:34:49;102562.34;;;-2.16;78.00
77159;BME280;66129;45.890;13.714;2023-02-12T03:37:38;102551.38;;;-2.24;78.35
77159;BME280;66129;45.890;13.714;2023-02-12T03:40:20;102582.91;;;-1.94;77.47
77159;BME280;66129;45.890;13.714;2023-02-12T03:43:09;102540.34;;;-2.10;77.52
77159;BME280;66129;45.890;13.714;2023-02-12T03:45:56;102574.19;;;-1.98;77.58
77159;BME280;66129;45.890;13.714;2023-02-12T03:48:35;102580.69;;;-2.00;77.68
77159;BME280;66129;45.890;13.714;2023-02-12T03:51:38;102590.75;;;-2.00;78.50
77159;BME280;66129;45.890;13.714;2023-02-12T03:54:07;102574.28;;;-2.22;78.64
77159;BME280;66129;45.890;13.714;2023-02-12T03:56:37;102571.94;;;-2.20;79.40
77159;BME280;66129;45.890;13.714;2023-02-12T03:59:06;102554.63;;;-2.42;79.70
77159;BME280;66129;45.890;13.714;2023-02-12T04:01:34;102545.91;;;-2.46;78.52
77159;BME280;66129;45.890;13.714;2023-02-12T04:04:03;102585.06;;;-2.31;78.47
77159;BME280;66129;45.890;13.714;2023-02-12T04:06:30;102583.16;;;-2.33;78.33
77159;BME280;66129;45.890;13.714;2023-02-12T04:08:58;102609.31;;;-2.15;78.28
77159;BME280;66129;45.890;13.714;2023-02-12T04:14:16;102610.03;;;-2.32;79.41
77159;BME280;66129;45.890;13.714;2023-02-12T04:16:51;102578.66;;;-2.53;78.79
77159;BME280;66129;45.890;13.714;2023-02-12T04:19:38;102612.38;;;-2.34;78.48
77159;BME280;66129;45.890;13.714;2023-02-12T04:28:24;102617.88;;;-2.21;78.44
77159;BME280;66129;45.890;13.714;2023-02-12T04:31:28;102604.28;;;-2.23;78.25
77159;BME280;66129;45.890;13.714;2023-02-12T04:34:14;102595.97;;;-2.39;78.43
77159;BME280;66129;45.890;13.714;2023-02-12T04:36:58;102615.16;;;-2.39;78.74
77159;BME280;66129;45.890;13.714;2023-02-12T04:39:28;102620.31;;;-2.38;78.92
77159;BME280;66129;45.890;13.714;2023-02-12T04:41:59;102582.03;;;-2.61;79.16
77159;BME280;66129;45.890;13.714;2023-02-12T04:44:30;102583.59;;;-2.70;78.90
77159;BME280;66129;45.890;13.714;2023-02-12T04:46:55;102628.75;;;-2.37;78.69
77159;BME280;66129;45.890;13.714;2023-02-12T04:49:22;102564.88;;;-2.73;78.71
77159;BME280;66129;45.890;13.714;2023-02-12T04:51:49;102633.47;;;-2.40;79.39
77159;BME280;66129;45.890;13.714;2023-02-12T04:54:16;102617.25;;;-2.35;78.48
77159;BME280;66129;45.890;13.714;2023-02-12T04:56:42;102619.47;;;-2.30;78.12
77159;BME280;66129;45.890;13.714;2023-02-12T04:59:08;102500.25;;;-3.08;78.33
77159;BME280;66129;45.890;13.714;2023-02-12T05:01:36;102622.28;;;-2.35;77.74
77159;BME280;66129;45.890;13.714;2023-02-12T05:04:06;102567.56;;;-2.63;77.94
77159;BME280;66129;45.890;13.714;2023-02-12T05:06:36;102555.13;;;-2.70;77.86
77159;BME280;66129;45.890;13.714;2023-02-12T05:09:03;102545.72;;;-2.97;79.88
77159;BME280;66129;45.890;13.714;2023-02-12T05:11:28;102517.69;;;-3.10;78.55
77159;BME280;66129;45.890;13.714;2023-02-12T05:13:54;102547.16;;;-2.75;78.53
77159;BME280;66129;45.890;13.714;2023-02-12T05:16:20;102552.75;;;-2.77;78.44
77159;BME280;66129;45.890;13.714;2023-02-12T05:18:46;102594.03;;;-2.50;78.28
77159;BME280;66129;45.890;13.714;2023-02-12T05:21:11;102572.56;;;-2.72;78.14
77159;BME280;66129;45.890;13.714;2023-02-12T05:23:38;102558.72;;;-2.60;77.57
77159;BME280;66129;45.890;13.714;2023-02-12T05:26:13;102530.91;;;-2.78;77.31
77159;BME280;66129;45.890;13.714;2023-02-12T05:28:39;102503.19;;;-2.80;76.93
77159;BME280;66129;45.890;13.714;2023-02-12T05:31:07;102548.25;;;-2.56;76.80
77159;BME280;66129;45.890;13.714;2023-02-12T05:33:33;102543.44;;;-2.78;77.40
77159;BME280;66129;45.890;13.714;2023-02-12T05:36:10;102637.25;;;-2.52;78.22
77159;BME280;66129;45.890;13.714;2023-02-12T05:38:37;102564.75;;;-2.99;78.56
77159;BME280;66129;45.890;13.714;2023-02-12T05:41:10;102604.97;;;-2.82;78.62
77159;BME280;66129;45.890;13.714;2023-02-12T05:43:36;102619.34;;;-2.72;78.50
77159;BME280;66129;45.890;13.714;2023-02-12T05:46:03;102499.44;;;-3.32;78.41
77159;BME280;66129;45.890;13.714;2023-02-12T05:48:30;102494.44;;;-3.32;78.13
77159;BME280;66129;45.890;13.714;2023-02-12T05:51:07;102608.91;;;-2.60;78.31
77159;BME280;66129;45.890;13.714;2023-02-12T05:53:34;102577.66;;;-2.87;78.49
77159;BME280;66129;45.890;13.714;2023-02-12T05:56:18;102592.56;;;-2.80;78.13
77159;BME280;66129;45.890;13.714;2023-02-12T05:58:51;102584.75;;;-2.83;78.60
77159;BME280;66129;45.890;13.714;2023-02-12T06:01:23;102566.72;;;-2.88;78.17
77159;BME280;66129;45.890;13.714;2023-02-12T06:03:49;102580.78;;;-2.81;77.78
77159;BME280;66129;45.890;13.714;2023-02-12T06:06:15;102605.78;;;-2.66;78.41
77159;BME280;66129;45.890;13.714;2023-02-12T06:08:40;102532.09;;;-3.16;79.36
77159;BME280;66129;45.890;13.714;2023-02-12T06:11:10;102551.47;;;-2.98;78.65
77159;BME280;66129;45.890;13.714;2023-02-12T06:13:46;102610.94;;;-2.73;78.74
77159;BME280;66129;45.890;13.714;2023-02-12T06:16:21;102541.50;;;-3.22;79.00
77159;BME280;66129;45.890;13.714;2023-02-12T06:18:47;102605.28;;;-2.79;79.31
77159;BME280;66129;45.890;13.714;2023-02-12T06:21:17;102566.28;;;-2.92;78.96
77159;BME280;66129;45.890;13.714;2023-02-12T06:24:06;102499.38;;;-3.41;79.86
77159;BME280;66129;45.890;13.714;2023-02-12T06:26:31;102586.38;;;-2.84;79.27
77159;BME280;66129;45.890;13.714;2023-02-12T06:28:57;102550.31;;;-3.01;78.39
77159;BME280;66129;45.890;13.714;2023-02-12T06:31:28;102566.72;;;-2.88;79.46
77159;BME280;66129;45.890;13.714;2023-02-12T06:33:55;102572.47;;;-2.89;78.48
77159;BME280;66129;45.890;13.714;2023-02-12T06:36:22;102638.06;;;-2.45;78.66
77159;BME280;66129;45.890;13.714;2023-02-12T06:38:51;102571.84;;;-2.71;78.54
77159;BME280;66129;45.890;13.714;2023-02-12T06:41:16;102638.38;;;-2.33;78.54
77159;BME280;66129;45.890;13.714;2023-02-12T06:43:42;102591.22;;;-2.53;78.08
77159;BME280;66129;45.890;13.714;2023-02-12T06:46:08;102585.06;;;-2.39;77.27
77159;BME280;66129;45.890;13.714;2023-02-12T06:48:34;102613.44;;;-2.23;77.47
77159;BME280;66129;45.890;13.714;2023-02-12T06:51:08;102651.34;;;-1.97;78.02
77159;BME280;66129;45.890;13.714;2023-02-12T06:53:37;102554.94;;;-2.31;77.61
77159;BME280;66129;45.890;13.714;2023-02-12T06:56:04;102630.97;;;-1.57;76.08
77159;BME280;66129;45.890;13.714;2023-02-12T06:58:31;102564.41;;;-2.12;77.72
77159;BME280;66129;45.890;13.714;2023-02-12T07:01:07;102598.72;;;-1.87;76.80
77159;BME280;66129;45.890;13.714;2023-02-12T07:03:43;102617.63;;;-1.82;77.07
77159;BME280;66129;45.890;13.714;2023-02-12T07:06:09;102576.97;;;-2.03;77.55
77159;BME280;66129;45.890;13.714;2023-02-12T07:08:35;102676.66;;;-1.27;77.23
77159;BME280;66129;45.890;13.714;2023-02-12T07:11:01;102595.03;;;-1.56;76.61
77159;BME280;66129;45.890;13.714;2023-02-12T07:13:27;102687.13;;;-0.98;76.71
77159;BME280;66129;45.890;13.714;2023-02-12T07:15:52;102568.84;;;-1.50;75.74
77159;BME280;66129;45.890;13.714;2023-02-12T07:18:18;102574.84;;;-1.31;75.18
77159;BME280;66129;45.890;13.714;2023-02-12T07:21:06;102638.63;;;-0.70;74.12
77159;BME280;66129;45.890;13.714;2023-02-12T07:23:33;102618.66;;;-0.77;74.13
77159;BME280;66129;45.890;13.714;2023-02-12T07:26:11;102630.53;;;-0.49;73.27
77159;BME280;66129;45.890;13.714;2023-02-12T07:28:38;102638.63;;;-0.34;72.77
77159;BME280;66129;45.890;13.714;2023-02-12T07:31:18;102611.38;;;-0.38;73.46
77159;BME280;66129;45.890;13.714;2023-02-12T07:33:55;102668.75;;;0.09;72.84
77159;BME280;66129;45.890;13.714;2023-02-12T07:36:22;102626.97;;;0.03;71.70
77159;BME280;66129;45.890;13.714;2023-02-12T07:38:48;102648.06;;;0.22;71.53
77159;BME280;66129;45.890;13.714;2023-02-12T07:41:21;102683.88;;;0.55;71.70
77159;BME280;66129;45.890;13.714;2023-02-12T07:44:00;102578.03;;;0.09;70.64
77159;BME280;66129;45.890;13.714;2023-02-12T07:46:57;102671.66;;;0.41;71.71
77159;BME280;66129;45.890;13.714;2023-02-12T07:49:22;102603.75;;;0.15;70.42
77159;BME280;66129;45.890;13.714;2023-02-12T07:51:48;102662.84;;;0.83;68.55
77159;BME280;66129;45.890;13.714;2023-02-12T07:54:15;102670.97;;;0.99;68.82
77159;BME280;66129;45.890;13.714;2023-02-12T07:56:47;102591.66;;;0.58;68.39
77159;BME280;66129;45.890;13.714;2023-02-12T07:59:17;102611.91;;;0.97;67.14
77159;BME280;66129;45.890;13.714;2023-02-12T08:01:48;102575.03;;;0.89;65.23
77159;BME280;66129;45.890;13.714;2023-02-12T08:04:22;102646.28;;;1.43;64.91
77159;BME280;66129;45.890;13.714;2023-02-12T08:06:55;102678.28;;;1.62;64.85
77159;BME280;66129;45.890;13.714;2023-02-12T08:09:26;102609.00;;;1.30;65.73
77159;BME280;66129;45.890;13.714;2023-02-12T08:11:54;102593.88;;;1.40;64.93
77159;BME280;66129;45.890;13.714;2023-02-12T08:14:23;102647.50;;;1.76;64.20
77159;BME280;66129;45.890;13.714;2023-02-12T08:16:50;102595.53;;;1.60;63.94
77159;BME280;66129;45.890;13.714;2023-02-12T08:19:16;102628.94;;;1.86;63.91
77159;BME280;66129;45.890;13.714;2023-02-12T08:24:33;102629.69;;;2.05;62.05
77159;BME280;66129;45.890;13.714;2023-02-12T08:26:59;102632.09;;;2.03;60.89
77159;BME280;66129;45.890;13.714;2023-02-12T08:29:27;102687.19;;;2.47;62.04
77159;BME280;66129;45.890;13.714;2023-02-12T08:31:58;102629.25;;;2.40;61.92
77159;BME280;66129;45.890;13.714;2023-02-12T08:34:31;102696.25;;;2.85;63.01
77159;BME280;66129;45.890;13.714;2023-02-12T08:36:57;102685.22;;;2.94;61.44
77159;BME280;66129;45.890;13.714;2023-02-12T08:40:00;102718.38;;;3.07;61.98
77159;BME280;66129;45.890;13.714;2023-02-12T08:42:33;102598.63;;;2.57;61.65
77159;BME280;66129;45.890;13.714;2023-02-12T08:45:11;102666.47;;;2.92;64.07
77159;BME280;66129;45.890;13.714;2023-02-12T08:47:37;102630.19;;;2.82;62.96
77159;BME280;66129;45.890;13.714;2023-02-12T08:50:05;102662.50;;;3.06;63.68
77159;BME280;66129;45.890;13.714;2023-02-12T08:52:33;102668.53;;;3.28;62.04
77159;BME280;66129;45.890;13.714;2023-02-12T09:01:20;102704.03;;;3.92;63.49
77159;BME280;66129;45.890;13.714;2023-02-12T09:04:09;102598.78;;;3.32;63.42
77159;BME280;66129;45.890;13.714;2023-02-12T09:07:30;102718.19;;;4.00;63.51
77159;BME280;66129;45.890;13.714;2023-02-12T09:10:22;102719.09;;;4.12;63.46
77159;BME280;66129;45.890;13.714;2023-02-12T09:17:13;102687.81;;;4.23;60.66
77159;BME280;66129;45.890;13.714;2023-02-12T09:26:10;102733.34;;;5.10;53.39
77159;BME280;66129;45.890;13.714;2023-02-12T09:29:17;102661.53;;;4.89;54.08
77159;BME280;66129;45.890;13.714;2023-02-12T09:31:44;102634.78;;;4.83;54.17
77159;BME280;66129;45.890;13.714;2023-02-12T09:37:36;102634.72;;;5.29;54.90
77159;BME280;66129;45.890;13.714;2023-02-12T09:40:02;102720.09;;;5.84;54.08
77159;BME280;66129;45.890;13.714;2023-02-12T09:45:37;102648.03;;;5.85;49.46
77159;BME280;66129;45.890;13.714;2023-02-12T09:53:37;102767.09;;;7.12;48.62
77159;BME280;66129;45.890;13.714;2023-02-12T09:56:25;102684.34;;;6.94;48.87
77159;BME280;66129;45.890;13.714;2023-02-12T10:02:25;102748.06;;;7.46;49.48
77159;BME280;66129;45.890;13.714;2023-02-12T10:05:02;102680.69;;;7.43;47.56
77159;BME280;66129;45.890;13.714;2023-02-12T10:34:07;102708.06;;;14.94;31.94
77159;BME280;66129;45.890;13.714;2023-02-12T10:46:54;102741.66;;;16.95;29.69
77159;BME280;66129;45.890;13.714;2023-02-12T10:50:12;102690.50;;;17.22;29.52
77159;BME280;66129;45.890;13.714;2023-02-12T10:56:48;102742.16;;;18.71;26.40
77159;BME280;66129;45.890;13.714;2023-02-12T10:59:28;102692.56;;;18.59;26.65
77159;BME280;66129;45.890;13.714;2023-02-12T11:02:22;102735.75;;;18.53;26.95
77159;BME280;66129;45.890;13.714;2023-02-12T11:04:48;102731.88;;;18.33;26.78
77159;BME280;66129;45.890;13.714;2023-02-12T11:07:14;102739.97;;;17.67;27.87
77159;BME280;66129;45.890;13.714;2023-02-12T11:09:52;102764.41;;;18.16;28.26
77159;BME280;66129;45.890;13.714;2023-02-12T11:12:39;102761.69;;;17.35;28.24
77159;BME280;66129;45.890;13.714;2023-02-12T11:15:14;102757.34;;;17.34;28.10
77159;BME280;66129;45.890;13.714;2023-02-12T11:17:43;102728.31;;;17.14;27.40
77159;BME280;66129;45.890;13.714;2023-02-12T11:23:05;102758.53;;;16.80;28.86
77159;BME280;66129;45.890;13.714;2023-02-12T11:25:33;102657.47;;;16.14;28.62
77159;BME280;66129;45.890;13.714;2023-02-12T11:28:19;102722.31;;;16.20;29.89
77159;BME280;66129;45.890;13.714;2023-02-12T11:36:27;102700.59;;;15.28;29.97
77159;BME280;66129;45.890;13.714;2023-02-12T11:38:56;102710.97;;;15.56;29.67
77159;BME280;66129;45.890;13.714;2023-02-12T11:41:49;102703.84;;;16.37;28.42
77159;BME280;66129;45.890;13.714;2023-02-12T11:47:29;102677.09;;;17.38;26.52
77159;BME280;66129;45.890;13.714;2023-02-12T11:50:08;102708.44;;;18.28;25.36
77159;BME280;66129;45.890;13.714;2023-02-12T11:52:51;102667.88;;;18.35;23.84
77159;BME280;66129;45.890;13.714;2023-02-12T11:55:32;102674.41;;;19.12;24.40
77159;BME280;66129;45.890;13.714;2023-02-12T11:58:26;102707.41;;;19.74;24.27
77159;BME280;66129;45.890;13.714;2023-02-12T12:01:29;102717.97;;;19.86;23.68
77159;BME280;66129;45.890;13.714;2023-02-12T12:04:18;102725.38;;;20.18;22.45
77159;BME280;66129;45.890;13.714;2023-02-12T12:07:17;102657.81;;;19.62;23.10
77159;BME280;66129;45.890;13.714;2023-02-12T12:09:55;102695.75;;;20.11;21.30
77159;BME280;66129;45.890;13.714;2023-02-12T12:12:54;102684.09;;;19.83;21.50
77159;BME280;66129;45.890;13.714;2023-02-12T12:15:56;102649.41;;;19.19;21.38
77159;BME280;66129;45.890;13.714;2023-02-12T12:25:21;102725.38;;;20.18;22.35
77159;BME280;66129;45.890;13.714;2023-02-12T12:33:18;102719.25;;;20.17;21.98
77159;BME280;66129;45.890;13.714;2023-02-12T13:04:45;102722.28;;;18.73;24.32
77159;BME280;66129;45.890;13.714;2023-02-12T13:13:52;102638.38;;;17.46;24.63
77159;BME280;66129;45.890;13.714;2023-02-12T13:25:36;102732.72;;;18.30;24.78
77159;BME280;66129;45.890;13.714;2023-02-12T13:28:59;102737.91;;;17.90;24.87
77159;BME280;66129;45.890;13.714;2023-02-12T13:57:54;102766.88;;;16.69;27.90
77159;BME280;66129;45.890;13.714;2023-02-12T14:00:04;102752.78;;;16.30;28.83
77159;BME280;66129;45.890;13.714;2023-02-12T14:05:22;102667.22;;;15.93;28.30
77159;BME280;66129;45.890;13.714;2023-02-12T14:08:00;102766.38;;;16.21;28.94
77159;BME280;66129;45.890;13.714;2023-02-12T14:10:30;102711.06;;;15.59;29.43
77159;BME280;66129;45.890;13.714;2023-02-12T14:15:36;102676.84;;;15.40;29.40
77159;BME280;66129;45.890;13.714;2023-02-12T14:18:26;102760.25;;;15.90;29.51
77159;BME280;66129;45.890;13.714;2023-02-12T14:23:50;102733.72;;;15.67;30.11
77159;BME280;66129;45.890;13.714;2023-02-12T14:26:21;102721.34;;;15.31;30.05
77159;BME280;66129;45.890;13.714;2023-02-12T14:28:53;102782.50;;;15.31;30.80
77159;BME280;66129;45.890;13.714;2023-02-12T14:36:45;102703.41;;;14.35;31.68
77159;BME280;66129;45.890;13.714;2023-02-12T14:41:52;102708.22;;;14.24;32.50
77159;BME280;66129;45.890;13.714;2023-02-12T14:46:59;102768.63;;;14.31;32.57
77159;BME280;66129;45.890;13.714;2023-02-12T14:49:48;102711.88;;;13.85;32.60
77159;BME280;66129;45.890;13.714;2023-02-12T14:52:21;102688.91;;;13.69;33.25
77159;BME280;66129;45.890;13.714;2023-02-12T14:57:41;102756.75;;;13.90;32.92
77159;BME280;66129;45.890;13.714;2023-02-12T15:00:24;102774.69;;;13.87;33.65
77159;BME280;66129;45.890;13.714;2023-02-12T15:08:29;102744.63;;;13.44;33.96
77159;BME280;66129;45.890;13.714;2023-02-12T15:13:42;102802.66;;;13.56;34.84
77159;BME280;66129;45.890;13.714;2023-02-12T15:16:16;102815.81;;;13.62;34.08
77159;BME280;66129;45.890;13.714;2023-02-12T15:18:58;102783.84;;;13.37;35.96
77159;BME280;66129;45.890;13.714;2023-02-12T15:21:27;102731.06;;;12.87;35.95
77159;BME280;66129;45.890;13.714;2023-02-12T15:24:07;102821.69;;;13.39;34.08
77159;BME280;66129;45.890;13.714;2023-02-12T15:26:38;102731.47;;;12.77;34.45
77159;BME280;66129;45.890;13.714;2023-02-12T15:29:21;102820.31;;;13.27;34.38
77159;BME280;66129;45.890;13.714;2023-02-12T15:31:54;102786.25;;;12.93;34.65
77159;BME280;66129;45.890;13.714;2023-02-12T15:34:26;102823.81;;;13.09;35.15
77159;BME280;66129;45.890;13.714;2023-02-12T15:37:07;102827.94;;;13.04;35.63
77159;BME280;66129;45.890;13.714;2023-02-12T15:51:48;102831.34;;;12.10;37.76
77159;BME280;66129;45.890;13.714;2023-02-12T15:54:20;102843.38;;;12.11;37.37
77159;BME280;66129;45.890;13.714;2023-02-12T15:56:49;102763.78;;;11.58;37.92
77159;BME280;66129;45.890;13.714;2023-02-12T15:59:27;102789.41;;;11.57;38.27
77159;BME280;66129;45.890;13.714;2023-02-12T16:02:13;102767.97;;;11.39;38.69
77159;BME280;66129;45.890;13.714;2023-02-12T16:04:46;102749.59;;;11.31;38.40
77159;BME280;66129;45.890;13.714;2023-02-12T16:07:16;102753.88;;;11.31;38.35
77159;BME280;66129;45.890;13.714;2023-02-12T16:09:43;102781.31;;;11.32;38.63
77159;BME280;66129;45.890;13.714;2023-02-12T16:15:41;102850.09;;;11.72;38.76
77159;BME280;66129;45.890;13.714;2023-02-12T16:18:25;102861.53;;;11.61;39.10
77159;BME280;66129;45.890;13.714;2023-02-12T16:21:28;102790.16;;;11.21;39.28
77159;BME280;66129;45.890;13.714;2023-02-12T16:24:33;102872.72;;;11.46;39.60
77159;BME280;66129;45.890;13.714;2023-02-12T16:34:25;102877.81;;;11.28;40.14
77159;BME280;66129;45.890;13.714;2023-02-12T17:01:40;102831.69;;;10.01;42.14
77159;BME280;66129;45.890;13.714;2023-02-12T17:04:30;102876.69;;;10.12;42.53
77159;BME280;66129;45.890;13.714;2023-02-12T17:06:56;102876.13;;;10.01;42.86
77159;BME280;66129;45.890;13.714;2023-02-12T17:09:22;102950.66;;;10.51;42.77
77159;BME280;66129;45.890;13.714;2023-02-12T17:11:48;102961.06;;;10.54;42.94
77159;BME280;66129;45.890;13.714;2023-02-12T17:14:18;102955.50;;;10.61;42.32
77159;BME280;66129;45.890;13.714;2023-02-12T17:16:44;102966.28;;;10.55;42.64
77159;BME280;66129;45.890;13.714;2023-02-12T17:19:10;102935.22;;;10.35;42.72
77159;BME280;66129;45.890;13.714;2023-02-12T17:21:39;102965.03;;;10.33;43.33
77159;BME280;66129;45.890;13.714;2023-02-12T17:26:35;102945.00;;;9.97;43.70
77159;BME280;66129;45.890;13.714;2023-02-12T17:29:01;102974.28;;;10.00;44.03
77159;BME280;66129;45.890;13.714;2023-02-12T17:31:31;102954.91;;;9.62;45.35
77159;BME280;66129;45.890;13.714;2023-02-12T17:33:57;102953.38;;;9.37;45.93
77159;BME280;66129;45.890;13.714;2023-02-12T17:36:25;102905.63;;;8.81;46.41
77159;BME280;66129;45.890;13.714;2023-02-12T17:38:56;102991.09;;;9.12;46.81
77159;BME280;66129;45.890;13.714;2023-02-12T17:41:21;102986.16;;;8.87;48.40
77159;BME280;66129;45.890;13.714;2023-02-12T17:44:01;102942.63;;;8.46;48.75
77159;BME280;66129;45.890;13.714;2023-02-12T17:46:27;102950.22;;;8.18;49.30
77159;BME280;66129;45.890;13.714;2023-02-12T17:48:56;102925.22;;;7.88;49.61
77159;BME280;66129;45.890;13.714;2023-02-12T17:51:22;102980.03;;;7.93;51.24